sensor_id;sensor_type;location;lat;lon;timestamp;pressure;altitude;pressure_sealevel;temperature;humidity
52291;BME280;39663;45.432;28.050;2022-10-16T00:05:39;102181.48;;;13.54;32.34
52291;BME280;39663;45.432;28.050;2022-10-16T00:06:12;102187.91;;;13.41;32.86
52291;BME280;39663;45.432;28.050;2022-10-16T00:06:43;102185.49;;;13.31;33.42
52291;BME280;39663;45.432;28.050;2022-10-16T00:07:15;102184.34;;;13.30;32.72
52291;BME280;39663;45.432;28.050;2022-10-16T00:07:46;102187.48;;;13.25;32.93
52291;BME280;39663;45.432;28.050;2022-10-16T00:08:18;102187.50;;;13.26;33.47
52291;BME280;39663;45.432;28.050;2022-10-16T00:08:50;102186.95;;;13.21;33.12
52291;BME280;39663;45.432;28.050;2022-10-16T00:09:21;102187.50;;;12.95;33.31
52291;BME280;39663;45.432;28.050;2022-10-16T00:09:53;102189.96;;;12.93;33.83
52291;BME280;39663;45.432;28.050;2022-10-16T00:10:24;102189.70;;;13.38;33.92
52291;BME280;39663;45.432;28.050;2022-10-16T00:11:00;102189.90;;;12.62;33.72
52291;BME280;39663;45.432;28.050;2022-10-16T00:11:34;102193.00;;;12.44;34.08
52291;BME280;39663;45.432;28.050;2022-10-16T00:12:06;102193.86;;;12.75;33.87
52291;BME280;39663;45.432;28.050;2022-10-16T00:12:37;102193.37;;;13.09;33.94
52291;BME280;39663;45.432;28.050;2022-10-16T00:13:09;102194.39;;;12.73;33.79
52291;BME280;39663;45.432;28.050;2022-10-16T00:13:41;102194.03;;;12.94;33.96
52291;BME280;39663;45.432;28.050;2022-10-16T00:14:15;102194.18;;;13.00;33.51
52291;BME280;39663;45.432;28.050;2022-10-16T00:14:46;102193.64;;;13.13;33.57
52291;BME280;39663;45.432;28.050;2022-10-16T00:15:17;102195.68;;;13.02;33.34
52291;BME280;39663;45.432;28.050;2022-10-16T00:15:49;102193.39;;;13.25;33.36
52291;BME280;39663;45.432;28.050;2022-10-16T00:16:20;102194.07;;;13.21;33.45
52291;BME280;39663;45.432;28.050;2022-10-16T00:16:51;102195.34;;;13.04;33.33
52291;BME280;39663;45.432;28.050;2022-10-16T00:17:23;102195.60;;;13.35;33.15
52291;BME280;39663;45.432;28.050;2022-10-16T00:17:54;102195.81;;;13.25;33.49
52291;BME280;39663;45.432;28.050;2022-10-16T00:18:26;102196.50;;;13.19;33.50
52291;BME280;39663;45.432;28.050;2022-10-16T00:18:58;102196.44;;;13.33;33.05
52291;BME280;39663;45.432;28.050;2022-10-16T00:19:30;102197.27;;;13.03;33.17
52291;BME280;39663;45.432;28.050;2022-10-16T00:20:02;102199.45;;;13.52;32.99
52291;BME280;39663;45.432;28.050;2022-10-16T00:20:34;102198.72;;;13.10;32.95
52291;BME280;39663;45.432;28.050;2022-10-16T00:21:08;102197.98;;;13.07;33.20
52291;BME280;39663;45.432;28.050;2022-10-16T00:21:40;102200.24;;;12.77;33.63
52291;BME280;39663;45.432;28.050;2022-10-16T00:22:11;102199.01;;;12.34;34.13
52291;BME280;39663;45.432;28.050;2022-10-16T00:22:42;102198.60;;;12.32;34.32
52291;BME280;39663;45.432;28.050;2022-10-16T00:23:14;102200.06;;;12.85;33.96
52291;BME280;39663;45.432;28.050;2022-10-16T00:23:46;102198.61;;;12.96;33.34
52291;BME280;39663;45.432;28.050;2022-10-16T00:24:18;102198.67;;;13.20;33.40
52291;BME280;39663;45.432;28.050;2022-10-16T00:24:49;102196.36;;;12.82;33.44
52291;BME280;39663;45.432;28.050;2022-10-16T00:25:21;102198.25;;;12.94;34.01
52291;BME280;39663;45.432;28.050;2022-10-16T00:25:56;102196.58;;;13.07;33.83
52291;BME280;39663;45.432;28.050;2022-10-16T00:26:30;102197.49;;;13.41;33.77
52291;BME280;39663;45.432;28.050;2022-10-16T00:27:01;102198.32;;;13.43;32.68
52291;BME280;39663;45.432;28.050;2022-10-16T00:27:33;102200.56;;;13.29;33.19
52291;BME280;39663;45.432;28.050;2022-10-16T00:28:05;102200.52;;;13.44;32.92
52291;BME280;39663;45.432;28.050;2022-10-16T00:28:37;102201.63;;;13.24;33.37
52291;BME280;39663;45.432;28.050;2022-10-16T00:29:08;102200.23;;;13.33;32.47
52291;BME280;39663;45.432;28.050;2022-10-16T00:29:40;102201.46;;;13.14;32.65
52291;BME280;39663;45.432;28.050;2022-10-16T00:30:11;102202.92;;;12.63;33.24
52291;BME280;39663;45.432;28.050;2022-10-16T00:30:42;102202.29;;;12.65;33.53
52291;BME280;39663;45.432;28.050;2022-10-16T00:31:14;102203.99;;;12.87;34.02
52291;BME280;39663;45.432;28.050;2022-10-16T00:31:46;102202.59;;;12.82;33.05
52291;BME280;39663;45.432;28.050;2022-10-16T00:32:17;102201.22;;;12.91;33.17
52291;BME280;39663;45.432;28.050;2022-10-16T00:32:49;102201.71;;;12.75;33.06
52291;BME280;39663;45.432;28.050;2022-10-16T00:33:20;102201.28;;;13.09;34.33
52291;BME280;39663;45.432;28.050;2022-10-16T00:33:52;102204.88;;;13.41;34.43
52291;BME280;39663;45.432;28.050;2022-10-16T00:34:24;102202.77;;;13.44;32.73
52291;BME280;39663;45.432;28.050;2022-10-16T00:34:55;102198.63;;;13.65;32.28
52291;BME280;39663;45.432;28.050;2022-10-16T00:35:27;102198.07;;;13.64;32.23
52291;BME280;39663;45.432;28.050;2022-10-16T00:35:59;102194.53;;;13.74;32.06
52291;BME280;39663;45.432;28.050;2022-10-16T00:36:30;102196.27;;;13.65;32.20
52291;BME280;39663;45.432;28.050;2022-10-16T00:37:03;102197.40;;;13.45;32.22
52291;BME280;39663;45.432;28.050;2022-10-16T00:37:34;102194.59;;;13.61;32.21
52291;BME280;39663;45.432;28.050;2022-10-16T00:38:06;102196.68;;;13.30;32.54
52291;BME280;39663;45.432;28.050;2022-10-16T00:38:38;102196.24;;;13.55;33.16
52291;BME280;39663;45.432;28.050;2022-10-16T00:39:09;102197.36;;;13.55;32.32
52291;BME280;39663;45.432;28.050;2022-10-16T00:39:41;102196.98;;;13.76;32.15
52291;BME280;39663;45.432;28.050;2022-10-16T00:40:12;102198.85;;;13.42;32.19
52291;BME280;39663;45.432;28.050;2022-10-16T00:40:44;102198.19;;;13.14;32.79
52291;BME280;39663;45.432;28.050;2022-10-16T00:41:17;102200.01;;;13.15;32.68
52291;BME280;39663;45.432;28.050;2022-10-16T00:41:48;102198.18;;;13.39;32.38
52291;BME280;39663;45.432;28.050;2022-10-16T00:42:20;102197.90;;;13.32;32.40
52291;BME280;39663;45.432;28.050;2022-10-16T00:42:51;102201.72;;;13.01;32.61
52291;BME280;39663;45.432;28.050;2022-10-16T00:43:41;102201.39;;;12.65;32.81
52291;BME280;39663;45.432;28.050;2022-10-16T00:44:48;102201.32;;;13.07;32.79
52291;BME280;39663;45.432;28.050;2022-10-16T00:45:19;102199.82;;;12.95;32.72
52291;BME280;39663;45.432;28.050;2022-10-16T00:45:51;102200.61;;;13.20;32.40
52291;BME280;39663;45.432;28.050;2022-10-16T00:46:25;102200.51;;;12.88;32.50
52291;BME280;39663;45.432;28.050;2022-10-16T00:46:57;102203.14;;;13.13;32.36
52291;BME280;39663;45.432;28.050;2022-10-16T00:47:31;102204.19;;;13.04;32.48
52291;BME280;39663;45.432;28.050;2022-10-16T00:48:03;102203.68;;;13.03;32.57
52291;BME280;39663;45.432;28.050;2022-10-16T00:48:34;102203.18;;;13.24;32.31
52291;BME280;39663;45.432;28.050;2022-10-16T00:49:09;102204.14;;;13.15;32.49
52291;BME280;39663;45.432;28.050;2022-10-16T00:49:41;102202.75;;;13.33;32.38
52291;BME280;39663;45.432;28.050;2022-10-16T00:50:18;102202.15;;;13.37;32.19
52291;BME280;39663;45.432;28.050;2022-10-16T00:50:52;102201.93;;;13.59;31.87
52291;BME280;39663;45.432;28.050;2022-10-16T00:51:30;102201.78;;;13.49;31.84
52291;BME280;39663;45.432;28.050;2022-10-16T00:52:04;102203.30;;;13.26;32.47
52291;BME280;39663;45.432;28.050;2022-10-16T00:52:37;102203.86;;;12.57;32.78
52291;BME280;39663;45.432;28.050;2022-10-16T00:53:10;102203.37;;;12.30;33.42
52291;BME280;39663;45.432;28.050;2022-10-16T00:53:42;102203.26;;;12.19;33.37
52291;BME280;39663;45.432;28.050;2022-10-16T00:54:16;102203.30;;;12.67;33.21
52291;BME280;39663;45.432;28.050;2022-10-16T00:54:50;102204.98;;;12.26;33.81
52291;BME280;39663;45.432;28.050;2022-10-16T00:55:24;102203.61;;;12.11;33.47
52291;BME280;39663;45.432;28.050;2022-10-16T00:55:55;102203.02;;;12.35;33.45
52291;BME280;39663;45.432;28.050;2022-10-16T00:56:27;102206.88;;;12.69;33.20
52291;BME280;39663;45.432;28.050;2022-10-16T00:57:01;102205.46;;;13.03;32.97
52291;BME280;39663;45.432;28.050;2022-10-16T00:57:33;102205.39;;;13.20;32.45
52291;BME280;39663;45.432;28.050;2022-10-16T00:58:04;102207.32;;;12.97;32.89
52291;BME280;39663;45.432;28.050;2022-10-16T00:58:36;102206.26;;;12.65;32.87
52291;BME280;39663;45.432;28.050;2022-10-16T00:59:15;102204.28;;;12.82;32.99
52291;BME280;39663;45.432;28.050;2022-10-16T00:59:47;102206.85;;;13.00;32.72
52291;BME280;39663;45.432;28.050;2022-10-16T01:00:21;102205.52;;;13.01;32.55
52291;BME280;39663;45.432;28.050;2022-10-16T01:00:53;102207.46;;;13.12;32.40
52291;BME280;39663;45.432;28.050;2022-10-16T01:01:25;102205.63;;;12.89;32.43
52291;BME280;39663;45.432;28.050;2022-10-16T01:01:58;102206.91;;;12.86;32.75
52291;BME280;39663;45.432;28.050;2022-10-16T01:02:29;102206.91;;;12.87;32.48
52291;BME280;39663;45.432;28.050;2022-10-16T01:03:02;102206.07;;;12.89;32.77
52291;BME280;39663;45.432;28.050;2022-10-16T01:03:36;102207.67;;;13.01;32.42
52291;BME280;39663;45.432;28.050;2022-10-16T01:04:08;102208.08;;;12.74;32.54
52291;BME280;39663;45.432;28.050;2022-10-16T01:04:43;102208.92;;;12.87;32.51
52291;BME280;39663;45.432;28.050;2022-10-16T01:05:15;102211.91;;;12.97;32.71
52291;BME280;39663;45.432;28.050;2022-10-16T01:05:53;102210.84;;;13.22;32.27
52291;BME280;39663;45.432;28.050;2022-10-16T01:06:34;102210.67;;;13.01;32.65
52291;BME280;39663;45.432;28.050;2022-10-16T01:07:15;102211.31;;;12.88;32.43
52291;BME280;39663;45.432;28.050;2022-10-16T01:07:53;102209.73;;;13.13;32.63
52291;BME280;39663;45.432;28.050;2022-10-16T01:08:34;102214.53;;;13.11;33.04
52291;BME280;39663;45.432;28.050;2022-10-16T01:09:14;102213.44;;;13.16;32.38
52291;BME280;39663;45.432;28.050;2022-10-16T01:09:54;102213.88;;;13.26;32.57
52291;BME280;39663;45.432;28.050;2022-10-16T01:10:32;102215.48;;;13.02;32.77
52291;BME280;39663;45.432;28.050;2022-10-16T01:11:12;102214.83;;;13.18;32.56
52291;BME280;39663;45.432;28.050;2022-10-16T01:11:56;102218.10;;;13.17;34.24
52291;BME280;39663;45.432;28.050;2022-10-16T01:12:38;102216.36;;;13.24;32.82
52291;BME280;39663;45.432;28.050;2022-10-16T01:13:14;102216.90;;;13.17;32.44
52291;BME280;39663;45.432;28.050;2022-10-16T01:13:53;102220.59;;;12.90;32.69
52291;BME280;39663;45.432;28.050;2022-10-16T01:14:30;102221.89;;;13.24;32.63
52291;BME280;39663;45.432;28.050;2022-10-16T01:15:09;102221.95;;;12.80;32.80
52291;BME280;39663;45.432;28.050;2022-10-16T01:15:47;102221.56;;;12.98;32.93
52291;BME280;39663;45.432;28.050;2022-10-16T01:16:30;102223.94;;;12.54;33.14
52291;BME280;39663;45.432;28.050;2022-10-16T01:17:10;102223.74;;;12.81;33.12
52291;BME280;39663;45.432;28.050;2022-10-16T01:17:48;102223.70;;;12.85;32.74
52291;BME280;39663;45.432;28.050;2022-10-16T01:18:27;102222.95;;;13.03;32.72
52291;BME280;39663;45.432;28.050;2022-10-16T01:19:08;102223.60;;;12.99;32.72
52291;BME280;39663;45.432;28.050;2022-10-16T01:19:56;102222.69;;;12.46;33.00
52291;BME280;39663;45.432;28.050;2022-10-16T01:20:35;102222.59;;;12.66;32.92
52291;BME280;39663;45.432;28.050;2022-10-16T01:21:11;102223.15;;;12.90;32.82
52291;BME280;39663;45.432;28.050;2022-10-16T01:21:46;102223.49;;;12.85;33.10
52291;BME280;39663;45.432;28.050;2022-10-16T01:22:20;102224.43;;;13.23;32.48
52291;BME280;39663;45.432;28.050;2022-10-16T01:23:04;102224.44;;;13.07;32.65
52291;BME280;39663;45.432;28.050;2022-10-16T01:23:43;102227.17;;;12.93;32.59
52291;BME280;39663;45.432;28.050;2022-10-16T01:24:30;102225.93;;;12.88;32.77
52291;BME280;39663;45.432;28.050;2022-10-16T01:25:07;102225.09;;;12.86;32.78
52291;BME280;39663;45.432;28.050;2022-10-16T01:25:54;102224.57;;;13.04;32.53
52291;BME280;39663;45.432;28.050;2022-10-16T01:26:39;102226.17;;;13.07;32.61
52291;BME280;39663;45.432;28.050;2022-10-16T01:27:17;102226.20;;;13.02;32.51
52291;BME280;39663;45.432;28.050;2022-10-16T01:27:52;102226.40;;;12.54;32.78
52291;BME280;39663;45.432;28.050;2022-10-16T01:28:29;102228.87;;;12.71;33.06
52291;BME280;39663;45.432;28.050;2022-10-16T01:29:09;102227.75;;;12.42;33.11
52291;BME280;39663;45.432;28.050;2022-10-16T01:29:51;102230.37;;;12.49;33.60
52291;BME280;39663;45.432;28.050;2022-10-16T01:30:27;102231.36;;;12.55;33.06
52291;BME280;39663;45.432;28.050;2022-10-16T01:31:02;102232.63;;;12.50;33.36
52291;BME280;39663;45.432;28.050;2022-10-16T01:31:36;102233.65;;;12.54;33.11
52291;BME280;39663;45.432;28.050;2022-10-16T01:32:16;102236.04;;;12.30;33.25
52291;BME280;39663;45.432;28.050;2022-10-16T01:32:52;102235.92;;;12.53;33.04
52291;BME280;39663;45.432;28.050;2022-10-16T01:33:30;102238.46;;;12.63;33.10
52291;BME280;39663;45.432;28.050;2022-10-16T01:34:07;102236.65;;;12.43;33.30
52291;BME280;39663;45.432;28.050;2022-10-16T01:34:48;102240.59;;;12.80;33.92
52291;BME280;39663;45.432;28.050;2022-10-16T01:35:23;102241.36;;;12.82;32.93
52291;BME280;39663;45.432;28.050;2022-10-16T01:36:02;102241.14;;;12.97;32.84
52291;BME280;39663;45.432;28.050;2022-10-16T01:36:38;102239.34;;;12.98;32.88
52291;BME280;39663;45.432;28.050;2022-10-16T01:37:14;102241.20;;;13.00;32.66
52291;BME280;39663;45.432;28.050;2022-10-16T01:37:50;102242.42;;;13.25;32.40
52291;BME280;39663;45.432;28.050;2022-10-16T01:38:28;102239.38;;;13.25;32.49
52291;BME280;39663;45.432;28.050;2022-10-16T01:39:02;102239.60;;;12.98;32.53
52291;BME280;39663;45.432;28.050;2022-10-16T01:39:36;102241.33;;;12.66;33.13
52291;BME280;39663;45.432;28.050;2022-10-16T01:40:11;102240.68;;;12.19;33.68
52291;BME280;39663;45.432;28.050;2022-10-16T01:40:46;102241.34;;;12.11;33.83
52291;BME280;39663;45.432;28.050;2022-10-16T01:41:22;102240.39;;;12.32;33.49
52291;BME280;39663;45.432;28.050;2022-10-16T01:42:01;102240.81;;;12.26;33.53
52291;BME280;39663;45.432;28.050;2022-10-16T01:42:38;102242.51;;;11.62;34.27
52291;BME280;39663;45.432;28.050;2022-10-16T01:43:15;102239.51;;;11.89;34.07
52291;BME280;39663;45.432;28.050;2022-10-16T01:44:06;102243.01;;;11.61;34.23
52291;BME280;39663;45.432;28.050;2022-10-16T01:44:40;102241.49;;;12.05;33.98
52291;BME280;39663;45.432;28.050;2022-10-16T01:45:14;102241.24;;;11.99;33.90
52291;BME280;39663;45.432;28.050;2022-10-16T01:45:47;102242.46;;;11.99;34.36
52291;BME280;39663;45.432;28.050;2022-10-16T01:46:21;102243.79;;;12.37;34.07
52291;BME280;39663;45.432;28.050;2022-10-16T01:46:54;102243.75;;;12.42;34.95
52291;BME280;39663;45.432;28.050;2022-10-16T01:47:27;102244.29;;;11.85;34.18
52291;BME280;39663;45.432;28.050;2022-10-16T01:48:02;102244.42;;;11.62;34.42
52291;BME280;39663;45.432;28.050;2022-10-16T01:48:36;102246.00;;;11.91;34.24
52291;BME280;39663;45.432;28.050;2022-10-16T01:49:10;102246.00;;;11.95;34.25
52291;BME280;39663;45.432;28.050;2022-10-16T01:49:43;102244.65;;;12.29;34.50
52291;BME280;39663;45.432;28.050;2022-10-16T01:50:17;102246.44;;;11.97;34.17
52291;BME280;39663;45.432;28.050;2022-10-16T01:50:54;102246.90;;;12.11;34.08
52291;BME280;39663;45.432;28.050;2022-10-16T01:51:27;102245.82;;;12.15;34.59
52291;BME280;39663;45.432;28.050;2022-10-16T01:52:04;102245.78;;;12.42;34.45
52291;BME280;39663;45.432;28.050;2022-10-16T01:52:40;102248.25;;;12.55;33.78
52291;BME280;39663;45.432;28.050;2022-10-16T01:53:13;102247.18;;;12.49;33.71
52291;BME280;39663;45.432;28.050;2022-10-16T01:53:49;102248.09;;;12.36;33.88
52291;BME280;39663;45.432;28.050;2022-10-16T01:54:23;102248.07;;;11.91;34.01
52291;BME280;39663;45.432;28.050;2022-10-16T01:54:58;102250.87;;;11.86;34.25
52291;BME280;39663;45.432;28.050;2022-10-16T01:55:35;102249.47;;;11.92;34.77
52291;BME280;39663;45.432;28.050;2022-10-16T01:56:10;102251.48;;;11.59;34.76
52291;BME280;39663;45.432;28.050;2022-10-16T01:56:43;102249.18;;;11.61;34.66
52291;BME280;39663;45.432;28.050;2022-10-16T01:57:17;102251.92;;;11.81;34.52
52291;BME280;39663;45.432;28.050;2022-10-16T01:57:52;102250.38;;;11.69;34.75
52291;BME280;39663;45.432;28.050;2022-10-16T01:58:26;102251.92;;;11.45;35.19
52291;BME280;39663;45.432;28.050;2022-10-16T01:59:03;102250.66;;;11.99;34.73
52291;BME280;39663;45.432;28.050;2022-10-16T01:59:40;102251.77;;;12.25;34.43
52291;BME280;39663;45.432;28.050;2022-10-16T02:00:14;102250.32;;;11.92;34.94
52291;BME280;39663;45.432;28.050;2022-10-16T02:00:48;102251.04;;;12.41;34.38
52291;BME280;39663;45.432;28.050;2022-10-16T02:01:22;102249.30;;;12.29;34.67
52291;BME280;39663;45.432;28.050;2022-10-16T02:01:56;102251.41;;;12.10;34.24
52291;BME280;39663;45.432;28.050;2022-10-16T02:02:31;102250.16;;;12.41;34.06
52291;BME280;39663;45.432;28.050;2022-10-16T02:03:03;102252.71;;;12.18;34.54
52291;BME280;39663;45.432;28.050;2022-10-16T02:03:38;102252.87;;;12.12;34.49
52291;BME280;39663;45.432;28.050;2022-10-16T02:04:14;102255.35;;;12.06;34.40
52291;BME280;39663;45.432;28.050;2022-10-16T02:04:50;102252.41;;;11.88;34.82
52291;BME280;39663;45.432;28.050;2022-10-16T02:05:28;102253.84;;;12.27;35.01
52291;BME280;39663;45.432;28.050;2022-10-16T02:06:02;102253.73;;;12.18;34.50
52291;BME280;39663;45.432;28.050;2022-10-16T02:06:34;102255.65;;;11.94;34.54
52291;BME280;39663;45.432;28.050;2022-10-16T02:07:07;102258.32;;;11.55;35.12
52291;BME280;39663;45.432;28.050;2022-10-16T02:07:39;102255.62;;;11.73;34.87
52291;BME280;39663;45.432;28.050;2022-10-16T02:08:10;102256.23;;;11.80;35.73
52291;BME280;39663;45.432;28.050;2022-10-16T02:08:42;102255.11;;;12.10;35.00
52291;BME280;39663;45.432;28.050;2022-10-16T02:09:13;102255.35;;;12.07;34.46
52291;BME280;39663;45.432;28.050;2022-10-16T02:09:45;102254.62;;;12.05;34.49
52291;BME280;39663;45.432;28.050;2022-10-16T02:10:18;102253.64;;;12.43;34.98
52291;BME280;39663;45.432;28.050;2022-10-16T02:10:49;102253.38;;;12.51;33.90
52291;BME280;39663;45.432;28.050;2022-10-16T02:11:21;102253.84;;;12.33;34.01
52291;BME280;39663;45.432;28.050;2022-10-16T02:11:54;102254.00;;;12.12;33.88
52291;BME280;39663;45.432;28.050;2022-10-16T02:12:31;102255.55;;;12.08;34.04
52291;BME280;39663;45.432;28.050;2022-10-16T02:13:07;102256.08;;;12.27;33.76
52291;BME280;39663;45.432;28.050;2022-10-16T02:13:44;102257.24;;;12.54;33.89
52291;BME280;39663;45.432;28.050;2022-10-16T02:14:16;102256.04;;;12.14;33.98
52291;BME280;39663;45.432;28.050;2022-10-16T02:14:48;102256.78;;;12.07;34.19
52291;BME280;39663;45.432;28.050;2022-10-16T02:15:19;102257.15;;;11.91;34.24
52291;BME280;39663;45.432;28.050;2022-10-16T02:15:51;102257.50;;;11.98;34.34
52291;BME280;39663;45.432;28.050;2022-10-16T02:16:33;102256.65;;;12.08;33.97
52291;BME280;39663;45.432;28.050;2022-10-16T02:17:11;102257.52;;;12.04;34.51
52291;BME280;39663;45.432;28.050;2022-10-16T02:17:43;102255.22;;;12.26;34.08
52291;BME280;39663;45.432;28.050;2022-10-16T02:18:15;102257.45;;;11.96;34.56
52291;BME280;39663;45.432;28.050;2022-10-16T02:18:46;102256.79;;;11.98;34.42
52291;BME280;39663;45.432;28.050;2022-10-16T02:19:19;102257.59;;;11.76;34.71
52291;BME280;39663;45.432;28.050;2022-10-16T02:19:54;102256.11;;;11.63;34.66
52291;BME280;39663;45.432;28.050;2022-10-16T02:20:28;102256.91;;;12.22;34.40
52291;BME280;39663;45.432;28.050;2022-10-16T02:21:07;102255.98;;;12.03;34.42
52291;BME280;39663;45.432;28.050;2022-10-16T02:21:47;102253.98;;;11.61;34.64
52291;BME280;39663;45.432;28.050;2022-10-16T02:22:24;102256.87;;;12.20;34.45
52291;BME280;39663;45.432;28.050;2022-10-16T02:22:58;102258.65;;;12.07;34.26
52291;BME280;39663;45.432;28.050;2022-10-16T02:23:38;102259.24;;;11.70;34.63
52291;BME280;39663;45.432;28.050;2022-10-16T02:24:18;102257.83;;;12.43;34.34
52291;BME280;39663;45.432;28.050;2022-10-16T02:24:58;102256.14;;;12.15;34.94
52291;BME280;39663;45.432;28.050;2022-10-16T02:25:32;102258.41;;;12.23;34.48
52291;BME280;39663;45.432;28.050;2022-10-16T02:26:10;102258.22;;;12.06;34.43
52291;BME280;39663;45.432;28.050;2022-10-16T02:26:48;102259.33;;;11.98;34.36
52291;BME280;39663;45.432;28.050;2022-10-16T02:27:24;102260.61;;;12.11;34.81
52291;BME280;39663;45.432;28.050;2022-10-16T02:28:04;102260.24;;;12.28;34.99
52291;BME280;39663;45.432;28.050;2022-10-16T02:28:42;102262.61;;;12.76;34.28
52291;BME280;39663;45.432;28.050;2022-10-16T02:29:20;102261.14;;;12.06;34.25
52291;BME280;39663;45.432;28.050;2022-10-16T02:29:57;102261.43;;;12.04;34.51
52291;BME280;39663;45.432;28.050;2022-10-16T02:30:33;102263.24;;;11.90;34.68
52291;BME280;39663;45.432;28.050;2022-10-16T02:31:10;102262.91;;;12.17;34.52
52291;BME280;39663;45.432;28.050;2022-10-16T02:31:46;102262.94;;;12.45;34.15
52291;BME280;39663;45.432;28.050;2022-10-16T02:32:22;102264.40;;;12.43;34.24
52291;BME280;39663;45.432;28.050;2022-10-16T02:32:56;102262.87;;;12.53;33.97
52291;BME280;39663;45.432;28.050;2022-10-16T02:33:31;102263.54;;;12.07;34.21
52291;BME280;39663;45.432;28.050;2022-10-16T02:34:04;102263.29;;;12.23;34.33
52291;BME280;39663;45.432;28.050;2022-10-16T02:34:37;102265.10;;;12.37;33.99
52291;BME280;39663;45.432;28.050;2022-10-16T02:35:11;102264.33;;;12.03;34.32
52291;BME280;39663;45.432;28.050;2022-10-16T02:35:45;102264.55;;;12.30;34.67
52291;BME280;39663;45.432;28.050;2022-10-16T02:36:18;102265.55;;;12.22;34.23
52291;BME280;39663;45.432;28.050;2022-10-16T02:36:50;102265.29;;;11.95;34.85
52291;BME280;39663;45.432;28.050;2022-10-16T02:37:23;102265.53;;;11.89;34.46
52291;BME280;39663;45.432;28.050;2022-10-16T02:37:56;102264.63;;;12.07;34.82
52291;BME280;39663;45.432;28.050;2022-10-16T02:38:28;102266.63;;;12.09;34.67
52291;BME280;39663;45.432;28.050;2022-10-16T02:39:00;102267.58;;;11.89;34.35
52291;BME280;39663;45.432;28.050;2022-10-16T02:39:33;102269.13;;;11.86;34.53
52291;BME280;39663;45.432;28.050;2022-10-16T02:40:06;102266.13;;;11.83;34.61
52291;BME280;39663;45.432;28.050;2022-10-16T02:40:39;102266.74;;;12.27;34.30
52291;BME280;39663;45.432;28.050;2022-10-16T02:41:11;102268.49;;;12.16;34.26
52291;BME280;39663;45.432;28.050;2022-10-16T02:41:43;102268.59;;;12.17;34.29
52291;BME280;39663;45.432;28.050;2022-10-16T02:42:15;102269.98;;;12.16;34.38
52291;BME280;39663;45.432;28.050;2022-10-16T02:42:50;102269.26;;;12.03;34.51
52291;BME280;39663;45.432;28.050;2022-10-16T02:43:22;102267.03;;;11.67;34.61
52291;BME280;39663;45.432;28.050;2022-10-16T02:43:55;102269.61;;;11.90;34.73
52291;BME280;39663;45.432;28.050;2022-10-16T02:44:27;102269.59;;;12.18;34.04
52291;BME280;39663;45.432;28.050;2022-10-16T02:44:58;102272.01;;;12.13;34.28
52291;BME280;39663;45.432;28.050;2022-10-16T02:45:30;102270.44;;;12.21;34.55
52291;BME280;39663;45.432;28.050;2022-10-16T02:46:02;102272.15;;;12.09;34.22
52291;BME280;39663;45.432;28.050;2022-10-16T02:46:34;102271.96;;;11.94;34.09
52291;BME280;39663;45.432;28.050;2022-10-16T02:47:05;102271.99;;;11.87;34.56
52291;BME280;39663;45.432;28.050;2022-10-16T02:47:37;102271.75;;;11.96;34.43
52291;BME280;39663;45.432;28.050;2022-10-16T02:48:09;102273.05;;;11.97;34.36
52291;BME280;39663;45.432;28.050;2022-10-16T02:48:40;102276.37;;;11.71;34.69
52291;BME280;39663;45.432;28.050;2022-10-16T02:49:12;102274.99;;;11.61;35.11
52291;BME280;39663;45.432;28.050;2022-10-16T02:49:43;102277.52;;;10.95;35.28
52291;BME280;39663;45.432;28.050;2022-10-16T02:50:15;102276.26;;;11.24;35.17
52291;BME280;39663;45.432;28.050;2022-10-16T02:50:47;102277.15;;;11.71;35.15
52291;BME280;39663;45.432;28.050;2022-10-16T02:51:19;102276.96;;;11.86;34.86
52291;BME280;39663;45.432;28.050;2022-10-16T02:51:50;102277.27;;;11.97;34.94
52291;BME280;39663;45.432;28.050;2022-10-16T02:52:22;102276.75;;;11.59;35.29
52291;BME280;39663;45.432;28.050;2022-10-16T02:52:53;102278.58;;;11.17;35.58
52291;BME280;39663;45.432;28.050;2022-10-16T02:53:25;102277.46;;;11.36;36.06
52291;BME280;39663;45.432;28.050;2022-10-16T02:53:56;102276.67;;;11.65;35.39
52291;BME280;39663;45.432;28.050;2022-10-16T02:54:28;102279.66;;;11.08;35.86
52291;BME280;39663;45.432;28.050;2022-10-16T02:54:59;102281.00;;;11.19;35.75
52291;BME280;39663;45.432;28.050;2022-10-16T02:55:30;102277.90;;;11.78;35.19
52291;BME280;39663;45.432;28.050;2022-10-16T02:56:02;102276.01;;;11.41;35.35
52291;BME280;39663;45.432;28.050;2022-10-16T02:56:34;102276.99;;;11.75;35.17
52291;BME280;39663;45.432;28.050;2022-10-16T02:57:05;102279.00;;;11.64;35.15
52291;BME280;39663;45.432;28.050;2022-10-16T02:57:37;102278.09;;;11.80;35.09
52291;BME280;39663;45.432;28.050;2022-10-16T02:58:08;102279.69;;;11.18;35.66
52291;BME280;39663;45.432;28.050;2022-10-16T02:58:40;102279.64;;;11.67;35.11
52291;BME280;39663;45.432;28.050;2022-10-16T02:59:11;102278.91;;;11.62;34.94
52291;BME280;39663;45.432;28.050;2022-10-16T02:59:42;102279.53;;;11.77;34.91
52291;BME280;39663;45.432;28.050;2022-10-16T03:00:16;102279.90;;;12.03;34.62
52291;BME280;39663;45.432;28.050;2022-10-16T03:00:48;102278.26;;;12.21;34.44
52291;BME280;39663;45.432;28.050;2022-10-16T03:01:20;102278.82;;;12.35;34.45
52291;BME280;39663;45.432;28.050;2022-10-16T03:01:51;102279.36;;;12.17;34.38
52291;BME280;39663;45.432;28.050;2022-10-16T03:02:23;102280.19;;;12.11;34.29
52291;BME280;39663;45.432;28.050;2022-10-16T03:02:54;102280.32;;;12.53;34.15